createdAt,value
2018-09-27T00:02:21.591Z,101818.20
2018-09-27T00:04:50.348Z,101815.97
2018-09-27T00:07:19.359Z,101816.41
2018-09-27T00:09:48.452Z,101818.98
2018-09-27T00:12:17.027Z,101814.20
2018-09-27T00:14:46.813Z,101813.36
2018-09-27T00:17:16.036Z,101818.08
2018-09-27T00:19:45.436Z,101814.22
2018-09-27T00:22:14.119Z,101806.94
2018-09-27T00:24:42.987Z,101812.53
2018-09-27T00:27:12.202Z,101810.39
2018-09-27T00:29:41.319Z,101811.70
2018-09-27T00:32:10.686Z,101810.39
2018-09-27T00:34:40.003Z,101808.72
2018-09-27T00:37:08.605Z,101805.25
2018-09-27T00:39:37.398Z,101809.58
2018-09-27T00:42:06.330Z,101809.17
2018-09-27T00:44:35.178Z,101808.72
2018-09-27T00:47:03.969Z,101806.18
2018-09-27T00:49:32.687Z,101804.48
2018-09-27T00:52:01.380Z,101805.34
2018-09-27T00:54:30.029Z,101807.05
2018-09-27T00:56:59.069Z,101798.95
2018-09-27T00:59:27.852Z,101802.84
2018-09-27T01:01:57.214Z,101802.39
2018-09-27T01:04:25.891Z,101801.94
2018-09-27T01:06:55.069Z,101801.98
2018-09-27T01:09:24.169Z,101798.50
2018-09-27T01:11:53.663Z,101798.52
2018-09-27T01:14:22.345Z,101791.23
2018-09-27T01:16:51.256Z,101796.39
2018-09-27T01:19:19.998Z,101800.25
2018-09-27T01:21:48.676Z,101792.52
2018-09-27T01:24:17.340Z,101797.72
2018-09-27T01:26:45.903Z,101788.25
2018-09-27T01:29:14.904Z,101785.22
2018-09-27T01:31:43.792Z,101783.86
2018-09-27T01:34:12.461Z,101790.70
2018-09-27T01:36:42.027Z,101785.53
2018-09-27T01:39:10.682Z,101790.24
2018-09-27T01:41:40.026Z,101787.71
2018-09-27T01:44:08.693Z,101784.23
2018-09-27T01:46:37.552Z,101789.84
2018-09-27T01:49:06.345Z,101782.96
2018-09-27T01:51:35.140Z,101783.38
2018-09-27T01:54:03.724Z,101779.98
2018-09-27T01:56:32.304Z,101785.96
2018-09-27T01:59:00.962Z,101785.96
2018-09-27T02:01:29.778Z,101791.50
2018-09-27T02:03:58.274Z,101785.97
2018-09-27T02:06:26.845Z,101782.95
2018-09-27T02:08:55.953Z,101776.95
2018-09-27T02:11:24.469Z,101773.55
2018-09-27T02:13:52.919Z,101778.31
2018-09-27T02:16:21.867Z,101788.20
2018-09-27T02:18:50.634Z,101778.77
2018-09-27T02:21:19.315Z,101782.29
2018-09-27T02:23:47.910Z,101777.13
2018-09-27T02:26:16.449Z,101767.73
2018-09-27T02:28:44.902Z,101767.33
2018-09-27T02:31:13.406Z,101763.14
2018-09-27T02:33:41.889Z,101759.28
2018-09-27T02:36:11.259Z,101758.00
2018-09-27T02:38:39.750Z,101755.50
2018-09-27T02:41:08.425Z,101756.39
2018-09-27T02:43:36.979Z,101754.30
2018-09-27T02:46:05.564Z,101752.69
2018-09-27T02:48:34.168Z,101753.54
2018-09-27T02:51:02.790Z,101757.46
2018-09-27T02:53:31.365Z,101751.94
2018-09-27T02:55:59.842Z,101754.11
2018-09-27T02:58:28.398Z,101751.94
2018-09-27T03:00:56.913Z,101754.96
2018-09-27T03:03:25.576Z,101748.97
2018-09-27T03:05:54.268Z,101750.70
2018-09-27T03:08:23.286Z,101740.39
2018-09-27T03:10:52.303Z,101742.16
2018-09-27T03:13:20.953Z,101739.63
2018-09-27T03:15:49.442Z,101747.42
2018-09-27T03:18:18.618Z,101746.53
2018-09-27T03:20:47.195Z,101747.83
2018-09-27T03:23:15.897Z,101744.41
2018-09-27T03:25:44.355Z,101734.11
2018-09-27T03:28:12.909Z,101733.72
2018-09-27T03:30:41.409Z,101728.56
2018-09-27T03:33:10.004Z,101736.74
2018-09-27T03:35:38.654Z,101731.59
2018-09-27T03:38:07.392Z,101725.18
2018-09-27T03:40:35.979Z,101731.64
2018-09-27T03:43:04.803Z,101733.36
2018-09-27T03:45:33.275Z,101734.20
2018-09-27T03:48:02.228Z,101724.80
2018-09-27T03:50:30.928Z,101730.01
2018-09-27T03:52:59.560Z,101723.52
2018-09-27T03:55:28.508Z,101723.11
2018-09-27T03:57:57.509Z,101730.86
2018-09-27T04:00:26.075Z,101723.08
2018-09-27T04:02:54.989Z,101730.84
2018-09-27T04:05:23.964Z,101729.58
2018-09-27T04:07:52.875Z,101731.31
2018-09-27T04:10:21.670Z,101727.00
2018-09-27T04:12:50.937Z,101725.27
2018-09-27T04:15:19.665Z,101729.13
2018-09-27T04:17:48.320Z,101727.44
2018-09-27T04:20:16.961Z,101721.45
2018-09-27T04:22:45.809Z,101719.77
2018-09-27T04:25:14.587Z,101724.47
2018-09-27T04:27:43.915Z,101725.31
2018-09-27T04:30:12.796Z,101727.45
2018-09-27T04:32:41.578Z,101724.47
2018-09-27T04:35:10.165Z,101727.05
2018-09-27T04:37:38.939Z,101730.02
2018-09-27T04:40:07.975Z,101730.42
2018-09-27T04:42:36.537Z,101733.43
2018-09-27T04:45:05.119Z,101732.59
2018-09-27T04:47:33.761Z,101731.25
2018-09-27T04:50:03.313Z,101733.42
2018-09-27T04:52:32.056Z,101736.41
2018-09-27T04:55:00.579Z,101734.28
2018-09-27T04:57:29.296Z,101731.69
2018-09-27T04:59:58.034Z,101734.66
2018-09-27T05:02:26.861Z,101733.42
2018-09-27T05:04:55.751Z,101732.08
2018-09-27T05:07:24.312Z,101736.39
2018-09-27T05:09:54.367Z,101732.91
2018-09-27T05:12:22.940Z,101738.06
2018-09-27T05:14:51.735Z,101741.48
2018-09-27T05:17:20.422Z,101746.22
2018-09-27T05:19:49.492Z,101741.06
2018-09-27T05:22:18.226Z,101739.33
2018-09-27T05:24:46.956Z,101741.90
2018-09-27T05:27:15.663Z,101737.13
2018-09-27T05:29:44.209Z,101744.46
2018-09-27T05:32:12.987Z,101747.00
2018-09-27T05:34:41.719Z,101740.98
2018-09-27T05:37:10.319Z,101747.38
2018-09-27T05:39:39.011Z,101736.23
2018-09-27T05:42:07.536Z,101746.97
2018-09-27T05:44:36.773Z,101743.50
2018-09-27T05:47:05.405Z,101744.34
2018-09-27T05:49:33.890Z,101752.46
2018-09-27T05:52:02.466Z,101747.70
2018-09-27T05:54:31.059Z,101751.53
2018-09-27T05:57:00.321Z,101754.95
2018-09-27T05:59:28.774Z,101754.06
2018-09-27T06:01:57.974Z,101750.20
2018-09-27T06:04:26.501Z,101748.89
2018-09-27T06:06:56.054Z,101748.88
2018-09-27T06:09:24.702Z,101745.40
2018-09-27T06:11:53.273Z,101751.39
2018-09-27T06:14:21.824Z,101751.78
2018-09-27T06:16:50.327Z,101753.51
2018-09-27T06:19:18.953Z,101758.23
2018-09-27T06:21:47.898Z,101758.61
2018-09-27T06:24:16.563Z,101756.89
2018-09-27T06:26:45.126Z,101753.01
2018-09-27T06:29:13.789Z,101761.11
2018-09-27T06:31:42.635Z,101761.05
2018-09-27T06:34:11.151Z,101761.89
2018-09-27T06:36:39.691Z,101760.60
2018-09-27T06:39:09.807Z,101763.09
2018-09-27T06:41:38.384Z,101758.31
2018-09-27T06:44:06.959Z,101763.39
2018-09-27T06:46:35.667Z,101758.97
2018-09-27T06:49:04.282Z,101768.75
2018-09-27T06:51:32.898Z,101763.13
2018-09-27T06:54:01.341Z,101771.63
2018-09-27T06:56:29.914Z,101772.48
2018-09-27T06:58:58.574Z,101775.48
2018-09-27T07:01:27.276Z,101769.42
2018-09-27T07:03:55.870Z,101764.25
2018-09-27T07:06:24.592Z,101765.84
2018-09-27T07:08:53.440Z,101763.48
2018-09-27T07:11:22.011Z,101772.70
2018-09-27T07:13:50.698Z,101770.84
2018-09-27T07:16:19.291Z,101769.44
2018-09-27T07:18:48.017Z,101766.75
2018-09-27T07:21:16.642Z,101764.45
2018-09-27T07:23:45.269Z,101763.17
2018-09-27T07:26:13.835Z,101759.83
2018-09-27T07:28:42.457Z,101764.08
2018-09-27T07:31:11.083Z,101758.19
2018-09-27T07:33:39.760Z,101754.18
2018-09-27T07:36:08.333Z,101760.17
2018-09-27T07:38:36.944Z,101757.92
2018-09-27T07:41:05.434Z,101755.53
2018-09-27T07:43:34.075Z,101757.61
2018-09-27T07:46:02.714Z,101758.33
2018-09-27T07:48:31.698Z,101748.15
2018-09-27T07:51:00.401Z,101753.55
2018-09-27T07:53:30.277Z,101760.23
2018-09-27T07:55:58.722Z,101755.04
2018-09-27T07:58:27.191Z,101757.08
2018-09-27T08:00:55.695Z,101752.84
2018-09-27T08:03:24.387Z,101756.40
2018-09-27T08:05:52.937Z,101755.05
2018-09-27T08:08:21.554Z,101759.22
2018-09-27T08:10:50.123Z,101758.06
2018-09-27T08:13:18.978Z,101759.19
2018-09-27T08:15:47.567Z,101761.52
2018-09-27T08:18:16.291Z,101756.25
2018-09-27T08:20:44.915Z,101755.80
2018-09-27T08:23:13.315Z,101749.08
2018-09-27T08:25:42.440Z,101750.06
2018-09-27T08:28:10.875Z,101750.16
2018-09-27T08:30:40.985Z,101748.59
2018-09-27T08:33:09.723Z,101752.37
2018-09-27T08:35:38.389Z,101751.78
2018-09-27T08:38:07.115Z,101755.73
2018-09-27T08:40:35.918Z,101744.67
2018-09-27T08:43:04.461Z,101740.48
2018-09-27T08:45:33.101Z,101743.77
2018-09-27T08:48:01.616Z,101744.22
2018-09-27T08:50:30.249Z,101734.87
2018-09-27T08:52:58.985Z,101731.89
2018-09-27T08:55:27.544Z,101732.95
2018-09-27T08:57:56.036Z,101722.98
2018-09-27T09:00:25.584Z,101724.19
2018-09-27T09:02:54.910Z,101710.02
2018-09-27T09:05:23.679Z,101707.58
2018-09-27T09:07:53.218Z,101704.84
2018-09-27T09:10:21.914Z,101704.27
2018-09-27T09:12:50.554Z,101705.56
2018-09-27T09:15:19.290Z,101702.31
2018-09-27T09:17:47.975Z,101703.69
2018-09-27T09:20:16.481Z,101703.92
2018-09-27T09:22:45.085Z,101704.42
2018-09-27T09:25:13.752Z,101696.94
2018-09-27T09:27:42.374Z,101692.36
2018-09-27T09:30:10.976Z,101689.99
2018-09-27T09:32:39.577Z,101697.80
2018-09-27T09:35:08.169Z,101686.10
2018-09-27T09:37:36.810Z,101688.77
2018-09-27T09:40:05.531Z,101686.97
2018-09-27T09:42:34.151Z,101683.31
2018-09-27T09:45:02.824Z,101681.36
2018-09-27T09:47:31.529Z,101681.77
2018-09-27T09:50:00.127Z,101678.33
2018-09-27T09:52:28.777Z,101676.94
2018-09-27T09:57:56.233Z,101668.30
2018-09-27T10:00:24.751Z,101662.39
2018-09-27T10:02:53.373Z,101657.13
2018-09-27T10:05:22.521Z,101656.95
2018-09-27T10:07:51.123Z,101655.55
2018-09-27T10:10:19.940Z,101647.94
2018-09-27T10:12:49.248Z,101647.20
2018-09-27T10:15:17.934Z,101641.75
2018-09-27T10:17:46.561Z,101638.92
2018-09-27T10:20:16.188Z,101634.83
2018-09-27T10:22:44.788Z,101631.95
2018-09-27T10:25:13.298Z,101622.05
2018-09-27T10:27:42.204Z,101624.90
2018-09-27T10:30:10.814Z,101615.75
2018-09-27T10:32:39.322Z,101615.36
2018-09-27T10:35:07.987Z,101609.03
2018-09-27T10:37:36.473Z,101604.36
2018-09-27T10:40:05.501Z,101608.49
2018-09-27T10:42:34.450Z,101604.13
2018-09-27T10:45:03.027Z,101604.64
2018-09-27T10:47:31.588Z,101602.80
2018-09-27T10:50:00.115Z,101601.17
2018-09-27T10:52:28.667Z,101596.44
2018-09-27T10:54:57.238Z,101600.03
2018-09-27T10:57:25.725Z,101588.18
2018-09-27T10:59:54.285Z,101590.14
2018-09-27T11:02:22.813Z,101591.91
2018-09-27T11:04:51.404Z,101587.56
2018-09-27T11:07:19.998Z,101581.73
2018-09-27T11:09:48.520Z,101574.91
2018-09-27T11:12:17.131Z,101589.00
2018-09-27T11:14:45.665Z,101578.59
2018-09-27T11:17:14.347Z,101573.02
2018-09-27T11:19:42.847Z,101566.52
2018-09-27T11:22:11.377Z,101572.50
2018-09-27T11:24:39.970Z,101560.93
2018-09-27T11:27:08.744Z,101557.52
2018-09-27T11:29:42.576Z,101545.09
2018-09-27T11:32:16.384Z,101544.31
2018-09-27T11:34:45.086Z,101547.59
2018-09-27T11:37:14.484Z,101535.48
2018-09-27T11:39:43.166Z,101534.45
2018-09-27T11:42:11.707Z,101531.73
2018-09-27T11:44:40.289Z,101527.62
2018-09-27T11:47:08.754Z,101522.95
2018-09-27T11:49:37.414Z,101527.28
2018-09-27T11:52:05.865Z,101513.23
2018-09-27T11:54:34.366Z,101507.45
2018-09-27T11:57:02.883Z,101510.36
2018-09-27T11:59:31.429Z,101508.23
2018-09-27T12:01:59.958Z,101499.38
2018-09-27T12:04:28.571Z,101501.98
2018-09-27T12:06:57.074Z,101503.14
2018-09-27T12:09:26.208Z,101498.08
2018-09-27T12:11:55.101Z,101493.14
2018-09-27T12:14:24.171Z,101491.11
2018-09-27T12:16:52.834Z,101481.63
2018-09-27T12:19:21.402Z,101480.37
2018-09-27T12:21:49.961Z,101466.83
2018-09-27T12:24:18.417Z,101468.61
2018-09-27T12:26:46.906Z,101465.11
2018-09-27T12:29:16.244Z,101464.02
2018-09-27T12:31:44.728Z,101463.01
2018-09-27T12:34:13.273Z,101465.46
2018-09-27T12:36:41.949Z,101462.30
2018-09-27T12:39:11.825Z,101456.89
2018-09-27T12:41:40.600Z,101448.14
2018-09-27T12:44:09.146Z,101441.15
2018-09-27T12:46:38.074Z,101441.24
2018-09-27T12:49:06.676Z,101444.56
2018-09-27T12:51:35.296Z,101444.09
2018-09-27T12:54:03.847Z,101435.14
2018-09-27T12:56:32.495Z,101433.16
2018-09-27T12:59:01.021Z,101425.34
2018-09-27T13:01:29.586Z,101425.71
2018-09-27T13:03:58.254Z,101419.30
2018-09-27T13:06:26.739Z,101416.72
2018-09-27T13:08:55.197Z,101409.42
2018-09-27T13:11:23.833Z,101407.06
2018-09-27T13:13:52.366Z,101395.63
2018-09-27T13:16:20.935Z,101388.12
2018-09-27T13:18:49.463Z,101385.45
2018-09-27T13:21:17.995Z,101371.36
2018-09-27T13:23:47.586Z,101375.41
2018-09-27T13:26:16.312Z,101368.67
2018-09-27T13:28:45.040Z,101365.16
2018-09-27T13:31:13.370Z,101355.34
2018-09-27T13:33:41.971Z,101352.73
2018-09-27T13:36:10.774Z,101353.22
2018-09-27T13:38:39.432Z,101347.30
2018-09-27T13:41:07.977Z,101340.17
2018-09-27T13:43:37.859Z,101339.41
2018-09-27T13:46:06.469Z,101336.73
2018-09-27T13:48:35.008Z,101327.52
2018-09-27T13:51:03.722Z,101322.30
2018-09-27T13:53:32.188Z,101311.05
2018-09-27T13:56:01.028Z,101314.81
2018-09-27T13:58:29.817Z,101308.83
2018-09-27T14:00:58.927Z,101298.00
2018-09-27T14:03:27.564Z,101292.25
2018-09-27T14:05:56.412Z,101290.87
2018-09-27T14:08:25.321Z,101288.31
2018-09-27T14:10:53.974Z,101277.30
2018-09-27T14:13:22.844Z,101269.88
2018-09-27T14:15:51.609Z,101270.46
2018-09-27T14:18:20.543Z,101263.65
2018-09-27T14:20:49.525Z,101260.59
2018-09-27T14:23:18.200Z,101249.53
2018-09-27T14:25:47.234Z,101251.05
2018-09-27T14:28:15.933Z,101243.23
2018-09-27T14:30:46.246Z,101243.78
2018-09-27T14:33:15.346Z,101240.53
2018-09-27T14:35:45.598Z,101241.47
2018-09-27T14:38:15.057Z,101232.05
2018-09-27T14:40:43.730Z,101230.64
2018-09-27T14:43:12.241Z,101225.75
2018-09-27T14:45:40.819Z,101220.60
2018-09-27T14:48:09.415Z,101216.00
2018-09-27T14:50:37.953Z,101224.22
2018-09-27T14:53:06.946Z,101208.03
2018-09-27T14:55:36.072Z,101208.64
2018-09-27T14:58:05.714Z,101213.97
2018-09-27T15:00:34.297Z,101207.63
2018-09-27T15:03:02.903Z,101203.25
2018-09-27T15:05:31.805Z,101204.12
2018-09-27T15:08:01.147Z,101200.35
2018-09-27T15:10:29.893Z,101197.74
2018-09-27T15:12:58.571Z,101193.14
2018-09-27T15:15:27.414Z,101186.63
2018-09-27T15:17:56.367Z,101183.22
2018-09-27T15:20:24.976Z,101175.13
2018-09-27T15:22:53.897Z,101168.97
2018-09-27T15:25:23.427Z,101169.13
2018-09-27T15:27:52.636Z,101156.87
2018-09-27T15:30:21.206Z,101159.55
2018-09-27T15:32:56.798Z,101155.42
2018-09-27T15:35:26.495Z,101151.44
2018-09-27T15:37:55.286Z,101145.47
2018-09-27T15:40:23.846Z,101140.46
2018-09-27T15:42:53.887Z,101137.78
2018-09-27T15:45:22.689Z,101140.61
2018-09-27T15:47:51.334Z,101142.83
2018-09-27T15:50:22.514Z,101135.98
2018-09-27T15:52:51.359Z,101136.75
2018-09-27T15:55:20.660Z,101136.39
2018-09-27T15:57:52.013Z,101128.67
2018-09-27T16:00:20.591Z,101124.55
2018-09-27T16:02:49.480Z,101122.02
2018-09-27T16:05:18.370Z,101121.94
2018-09-27T16:07:47.277Z,101120.63
2018-09-27T16:10:16.036Z,101116.00
2018-09-27T16:12:45.536Z,101111.63
2018-09-27T16:15:14.080Z,101112.78
2018-09-27T16:17:44.971Z,101108.03
2018-09-27T16:20:19.423Z,101103.98
2018-09-27T16:22:48.427Z,101103.22
2018-09-27T16:25:18.078Z,101101.91
2018-09-27T16:27:48.249Z,101097.78
2018-09-27T16:30:17.616Z,101098.97
2018-09-27T16:32:49.286Z,101090.72
2018-09-27T16:35:19.317Z,101087.20
2018-09-27T16:37:49.198Z,101089.22
2018-09-27T16:40:20.670Z,101087.25
2018-09-27T16:42:50.687Z,101083.27
2018-09-27T16:45:23.234Z,101086.59
2018-09-27T16:47:54.166Z,101082.27
2018-09-27T16:50:24.107Z,101079.44
2018-09-27T16:52:57.717Z,101084.56
2018-09-27T16:55:28.457Z,101087.17
2018-09-27T16:57:58.324Z,101083.03
2018-09-27T17:00:28.669Z,101085.73
2018-09-27T17:02:59.151Z,101084.33
2018-09-27T17:05:29.911Z,101080.49
2018-09-27T17:07:59.372Z,101075.40
2018-09-27T17:10:28.855Z,101072.67
2018-09-27T17:13:01.741Z,101072.98
2018-09-27T17:15:33.191Z,101064.17
2018-09-27T17:18:04.563Z,101066.22
2018-09-27T17:20:34.319Z,101055.86
2018-09-27T17:23:04.932Z,101056.42
2018-09-27T17:25:38.652Z,101053.79
2018-09-27T17:28:09.318Z,101051.46
2018-09-27T17:30:39.996Z,101047.67
2018-09-27T17:33:09.215Z,101054.37
2018-09-27T17:35:38.764Z,101048.68
2018-09-27T17:38:08.428Z,101038.30
2018-09-27T17:40:41.538Z,101041.23
2018-09-27T17:43:12.256Z,101037.09
2018-09-27T17:45:41.855Z,101034.44
2018-09-27T17:48:14.560Z,101036.69
2018-09-27T17:50:43.881Z,101031.17
2018-09-27T17:53:14.135Z,101030.98
2018-09-27T17:55:42.920Z,101030.83
2018-09-27T17:58:13.168Z,101027.66
2018-09-27T18:00:42.692Z,101029.84
2018-09-27T18:03:12.064Z,101027.64
2018-09-27T18:05:41.661Z,101031.44
2018-09-27T18:08:12.205Z,101029.41
2018-09-27T18:10:41.967Z,101024.95
2018-09-27T18:13:12.164Z,101026.45
2018-09-27T18:15:41.960Z,101018.78
2018-09-27T18:18:10.938Z,101021.78
2018-09-27T18:20:40.266Z,101016.06
2018-09-27T18:23:09.731Z,101017.52
2018-09-27T18:25:39.228Z,101016.30
2018-09-27T18:28:08.759Z,101019.85
2018-09-27T18:30:37.732Z,101014.47
2018-09-27T18:33:06.902Z,101014.59
2018-09-27T18:35:36.428Z,101016.02
2018-09-27T18:38:05.312Z,101013.53
2018-09-27T18:40:35.674Z,101019.92
2018-09-27T18:43:04.396Z,101016.91
2018-09-27T18:45:33.669Z,101014.17
2018-09-27T18:48:02.290Z,101012.52
2018-09-27T18:50:30.904Z,101010.20
2018-09-27T18:52:59.868Z,101012.25
2018-09-27T18:55:28.963Z,101007.50
2018-09-27T18:57:58.645Z,101010.50
2018-09-27T19:00:27.520Z,101007.56
2018-09-27T19:02:56.096Z,101005.03
2018-09-27T19:05:25.170Z,101009.21
2018-09-27T19:07:54.505Z,101013.52
2018-09-27T19:10:26.313Z,101006.67
2018-09-27T19:12:55.319Z,101009.98
2018-09-27T19:15:24.240Z,101005.00
2018-09-27T19:17:53.100Z,100999.52
2018-09-27T19:20:22.222Z,100999.92
2018-09-27T19:22:52.034Z,101001.30
2018-09-27T19:25:21.178Z,100994.12
2018-09-27T19:27:49.798Z,100992.59
2018-09-27T19:30:18.889Z,100987.67
2018-09-27T19:32:47.700Z,100980.94
2018-09-27T19:35:16.513Z,100982.92
2018-09-27T19:37:45.424Z,100983.77
2018-09-27T19:40:14.343Z,100985.44
2018-09-27T19:42:44.150Z,100974.48
2018-09-27T19:45:12.958Z,100984.31
2018-09-27T19:47:42.218Z,100980.65
2018-09-27T19:50:10.962Z,100979.14
2018-09-27T19:52:40.342Z,100972.79
2018-09-27T19:55:09.336Z,100975.95
2018-09-27T19:57:37.935Z,100982.37
2018-09-27T20:00:07.121Z,100979.41
2018-09-27T20:02:35.821Z,100980.27
2018-09-27T20:05:04.537Z,100977.13
2018-09-27T20:07:33.885Z,100978.47
2018-09-27T20:10:02.671Z,100973.56
2018-09-27T20:12:31.976Z,100976.82
2018-09-27T20:15:01.234Z,100979.36
2018-09-27T20:17:30.374Z,100971.58
2018-09-27T20:19:59.971Z,100964.80
2018-09-27T20:22:29.169Z,100968.24
2018-09-27T20:24:58.041Z,100970.09
2018-09-27T20:27:26.605Z,100959.91
2018-09-27T20:29:55.933Z,100961.95
2018-09-27T20:32:24.800Z,100963.94
2018-09-27T20:34:53.694Z,100961.16
2018-09-27T20:37:22.481Z,100955.31
2018-09-27T20:39:51.971Z,100951.48
2018-09-27T20:42:20.701Z,100953.82
2018-09-27T20:44:49.579Z,100953.32
2018-09-27T20:47:18.839Z,100947.78
2018-09-27T20:49:47.355Z,100943.38
2018-09-27T20:52:15.945Z,100949.86
2018-09-27T20:54:45.857Z,100953.66
2018-09-27T20:57:15.153Z,100951.88
2018-09-27T20:59:44.400Z,100948.91
2018-09-27T21:02:15.654Z,100945.71
2018-09-27T21:04:44.969Z,100949.57
2018-09-27T21:07:13.572Z,100941.06
2018-09-27T21:09:43.095Z,100943.89
2018-09-27T21:12:11.679Z,100943.39
2018-09-27T21:14:40.326Z,100941.31
2018-09-27T21:17:09.267Z,100934.98
2018-09-27T21:19:39.531Z,100941.47
2018-09-27T21:22:08.953Z,100932.88
2018-09-27T21:24:38.147Z,100936.49
2018-09-27T21:27:07.547Z,100928.09
2018-09-27T21:29:37.035Z,100929.88
2018-09-27T21:32:06.228Z,100926.40
2018-09-27T21:34:34.844Z,100923.55
2018-09-27T21:37:03.494Z,100921.94
2018-09-27T21:39:32.080Z,100913.17
2018-09-27T21:42:00.819Z,100919.13
2018-09-27T21:44:29.346Z,100915.75
2018-09-27T21:46:58.656Z,100918.61
2018-09-27T21:49:27.366Z,100913.08
2018-09-27T21:51:56.231Z,100909.35
2018-09-27T21:54:25.720Z,100908.52
2018-09-27T21:56:54.463Z,100910.27
2018-09-27T21:59:24.031Z,100912.85
2018-09-27T22:01:53.265Z,100909.09
2018-09-27T22:04:23.023Z,100914.33
2018-09-27T22:06:51.610Z,100915.68
2018-09-27T22:09:20.681Z,100919.56
2018-09-27T22:11:49.279Z,100915.90
2018-09-27T22:14:17.869Z,100909.48
2018-09-27T22:16:47.376Z,100907.98
2018-09-27T22:19:16.576Z,100904.76
2018-09-27T22:21:45.372Z,100906.81
2018-09-27T22:24:14.150Z,100899.26
2018-09-27T22:26:43.375Z,100895.08
2018-09-27T22:29:12.327Z,100898.47
2018-09-27T22:31:41.548Z,100890.00
2018-09-27T22:34:10.169Z,100888.37
2018-09-27T22:36:38.684Z,100892.60
2018-09-27T22:39:07.981Z,100891.45
2018-09-27T22:41:36.574Z,100888.88
2018-09-27T22:44:05.146Z,100888.42
2018-09-27T22:46:33.694Z,100881.21
2018-09-27T22:49:02.366Z,100876.09
2018-09-27T22:51:31.038Z,100881.67
2018-09-27T22:53:59.667Z,100882.11
2018-09-27T22:56:29.080Z,100880.89
2018-09-27T22:58:57.727Z,100876.17
2018-09-27T23:01:26.622Z,100871.93
2018-09-27T23:03:56.292Z,100879.16
2018-09-27T23:06:25.995Z,100880.02
2018-09-27T23:08:56.111Z,100877.42
2018-09-27T23:11:24.667Z,100875.34
2018-09-27T23:13:53.663Z,100879.67
2018-09-27T23:16:22.200Z,100883.06
2018-09-27T23:18:50.853Z,100880.98
2018-09-27T23:21:19.371Z,100880.53
2018-09-27T23:23:48.457Z,100878.48
2018-09-27T23:26:17.720Z,100879.38
2018-09-27T23:28:46.557Z,100874.23
2018-09-27T23:31:15.091Z,100879.06
2018-09-27T23:33:44.191Z,100880.75
2018-09-27T23:36:12.658Z,100876.97
2018-09-27T23:38:41.524Z,100881.36
2018-09-27T23:41:10.374Z,100879.38
2018-09-27T23:43:39.028Z,100879.98
2018-09-27T23:46:09.360Z,100873.05
2018-09-27T23:48:38.951Z,100879.84
2018-09-27T23:51:08.238Z,100878.57
2018-09-27T23:53:37.193Z,100873.12
2018-09-27T23:56:05.816Z,100869.73
2018-09-27T23:58:35.534Z,100869.36
